Time;durP1;ratioP1;P1;durP2;ratioP2;P2;SDS_P1;SDS_P2;PMS_P1;PMS_P2;Temp;Humidity;BMP_temperature;BMP_pressure;BME280_temperature;BME280_humidity;BME280_pressure;Samples;Min_cycle;Max_cycle;Signal;HPM_P1;HPM_P2
2023/01/22 09:06:59;;;;;;;;;33.25;27.50;;;;;1.34;100.00;103047.84;5989365;23;46870;-65
2023/01/22 09:09:25;;;;;;;;;29.75;25.75;;;;;1.75;100.00;103088.75;4926644;28;50013;-66
2023/01/22 09:11:50;;;;;;;;;32.25;23.50;;;;;1.76;100.00;103069.84;4915009;28;52099;-67
2023/01/22 09:14:16;;;;;;;;;45.00;35.75;;;;;1.13;100.00;102970.81;4914868;28;49741;-70
2023/01/22 09:16:41;;;;;;;;;32.00;30.00;;;;;1.28;100.00;102946.38;4914843;28;49852;-66
2023/01/22 09:19:07;;;;;;;;;30.00;27.25;;;;;2.13;100.00;103115.63;4915074;28;49756;-68
2023/01/22 09:21:32;;;;;;;;;28.25;22.00;;;;;1.71;100.00;103005.59;4917658;28;50708;-67
2023/01/22 09:23:59;;;;;;;;;40.00;32.50;;;;;2.43;100.00;103092.50;4917310;28;50025;-70
2023/01/22 09:26:24;;;;;;;;;33.00;29.75;;;;;2.06;100.00;103033.81;4914687;28;50447;-71
2023/01/22 09:28:50;;;;;;;;;25.25;25.25;;;;;2.39;100.00;103030.75;4917658;28;49969;-74
2023/01/22 09:31:16;;;;;;;;;43.25;29.25;;;;;2.54;100.00;103076.22;4917924;28;49964;-63
2023/01/22 09:33:41;;;;;;;;;34.00;26.25;;;;;2.82;100.00;103089.97;4928913;28;49875;-66
2023/01/22 09:36:10;;;;;;;;;36.50;30.00;;;;;2.86;100.00;103097.25;4921802;28;49767;-76
2023/01/22 09:38:36;;;;;;;;;30.75;28.50;;;;;2.52;100.00;103032.78;4923222;28;49755;-70
2023/01/22 09:41:11;;;;;;;;;31.75;27.25;;;;;2.90;100.00;103085.47;4919465;28;49904;-67
2023/01/22 09:43:48;;;;;;;;;37.50;29.75;;;;;2.40;100.00;103029.97;4917158;28;50013;-70
2023/01/22 09:46:27;;;;;;;;;38.50;31.00;;;;;2.73;100.00;103109.91;4917967;28;49951;-63
2023/01/22 09:48:57;;;;;;;;;36.00;25.75;;;;;2.80;100.00;103107.09;4922391;28;50698;-63
2023/01/22 09:51:23;;;;;;;;;38.25;32.75;;;;;2.24;100.00;102990.53;4921325;28;49991;-62
2023/01/22 09:53:55;;;;;;;;;40.50;34.00;;;;;2.74;100.00;103087.47;4918847;28;49934;-68
2023/01/22 09:56:28;;;;;;;;;35.75;31.50;;;;;2.31;100.00;103011.00;4919366;28;50077;-70
2023/01/22 09:58:56;;;;;;;;;41.25;32.75;;;;;2.97;100.00;103110.25;4922673;28;50057;-64
2023/01/22 10:01:22;;;;;;;;;27.25;21.50;;;;;2.93;100.00;103103.91;4921522;28;50520;-68
2023/01/22 10:03:54;;;;;;;;;43.75;34.50;;;;;3.13;100.00;103131.59;4922110;28;49741;-64
2023/01/22 10:06:21;;;;;;;;;32.50;30.00;;;;;2.30;100.00;102998.81;4929129;28;49826;-66
2023/01/22 10:09:01;;;;;;;;;26.00;23.25;;;;;3.10;100.00;103114.09;4920102;28;50052;-73
2023/01/22 10:11:27;;;;;;;;;37.50;32.50;;;;;3.12;100.00;103120.31;4922906;28;50032;-71
2023/01/22 10:13:59;;;;;;;;;30.75;25.75;;;;;3.02;100.00;103124.56;4920854;28;49973;-76
2023/01/22 10:16:24;;;;;;;;;35.75;33.25;;;;;2.72;100.00;103092.53;4922041;28;49850;-66
2023/01/22 10:18:55;;;;;;;;;34.25;28.75;;;;;3.04;100.00;103116.13;4931844;28;49820;-81
2023/01/22 10:21:25;;;;;;;;;27.75;23.50;;;;;2.23;100.00;102991.31;4924389;28;50706;-68
2023/01/22 10:23:54;;;;;;;;;29.75;28.50;;;;;2.42;100.00;102986.06;4915065;28;49864;-77
2023/01/22 10:26:25;;;;;;;;;32.75;28.00;;;;;2.44;100.00;102984.53;4914592;28;49607;-77
2023/01/22 10:28:54;;;;;;;;;35.25;31.00;;;;;3.05;100.00;103063.44;4916948;28;50055;-67
2023/01/22 10:31:29;;;;;;;;;25.50;24.00;;;;;3.47;100.00;103117.28;4919730;28;50805;-73
2023/01/22 10:34:16;;;;;;;;;37.25;34.25;;;;;3.64;100.00;103116.16;4932839;28;49903;-73
2023/01/22 10:36:52;;;;;;;;;36.50;30.00;;;;;3.21;100.00;103054.41;4905484;28;49746;-69
2023/01/22 10:39:18;;;;;;;;;20.00;14.75;;;;;3.06;100.00;103005.59;4929857;28;49721;-70
2023/01/22 10:41:46;;;;;;;;;37.00;26.75;;;;;3.43;100.00;103079.75;4914168;28;49891;-69
2023/01/22 10:44:21;;;;;;;;;35.00;28.00;;;;;3.59;100.00;103101.88;4914430;28;49815;-70
2023/01/22 10:46:48;;;;;;;;;25.25;25.00;;;;;3.61;100.00;103110.69;4925405;28;49963;-71
2023/01/22 10:49:32;;;;;;;;;33.00;24.75;;;;;2.97;100.00;103009.97;4914079;28;50042;-69
2023/01/22 10:52:03;;;;;;;;;27.00;26.00;;;;;2.92;100.00;102981.81;4914748;28;49867;-71
2023/01/22 10:54:33;;;;;;;;;32.75;22.75;;;;;3.56;100.00;103062.63;4915927;28;49863;-70
2023/01/22 10:57:12;;;;;;;;;29.25;21.00;;;;;3.04;100.00;102993.25;4915416;28;49920;-72
2023/01/22 10:59:38;;;;;;;;;30.50;24.25;;;;;3.69;100.00;103091.50;4919644;28;50008;-75
2023/01/22 11:02:19;;;;;;;;;26.50;23.50;;;;;3.33;100.00;103052.88;4913867;28;49771;-70
2023/01/22 11:04:44;;;;;;;;;33.75;25.75;;;;;3.35;100.00;103057.41;4913683;28;49954;-75
2023/01/22 11:07:21;;;;;;;;;26.25;24.25;;;;;2.71;100.00;102945.47;4912447;28;49783;-69
2023/01/22 11:10:02;;;;;;;;;25.50;22.00;;;;;3.43;100.00;103058.09;4913891;28;49909;-72
2023/01/22 11:12:33;;;;;;;;;26.00;22.75;;;;;3.47;100.00;103104.28;4922770;28;49799;-79
2023/01/22 11:14:58;;;;;;;;;16.25;11.25;;;;;3.33;100.00;103086.63;4932330;28;49746;-70
2023/01/22 11:17:33;;;;;;;;;22.75;18.75;;;;;2.53;100.00;102964.59;4918479;28;49841;-70
2023/01/22 11:20:10;;;;;;;;;25.25;22.50;;;;;2.50;100.00;102943.56;4915660;28;50002;-70
2023/01/22 11:22:39;;;;;;;;;18.25;17.50;;;;;2.98;100.00;103005.69;4912900;28;49836;-70
2023/01/22 11:25:09;;;;;;;;;26.25;22.50;;;;;2.77;100.00;102994.34;4918743;28;49851;-74
2023/01/22 11:27:52;;;;;;;;;23.00;21.75;;;;;3.29;100.00;103082.88;4931999;28;49950;-70
2023/01/22 11:30:52;;;;;;;;;27.25;22.75;;;;;2.96;100.00;103028.91;4913963;28;49938;-71
2023/01/22 11:33:30;;;;;;;;;25.25;20.50;;;;;3.33;100.00;103084.03;4918415;28;49917;-69
2023/01/22 11:36:53;;;;;;;;;32.25;25.00;;;;;3.19;100.00;103030.03;4931848;28;49693;-73
2023/01/22 11:39:43;;;;;;;;;19.25;19.25;;;;;3.37;100.00;103066.25;4916916;28;49999;-73
2023/01/22 11:42:31;;;;;;;;;22.25;18.00;;;;;2.12;100.00;102873.72;4916114;28;49887;-73
2023/01/22 11:45:08;;;;;;;;;18.50;13.25;;;;;3.57;100.00;103061.84;4913522;28;50453;-73
2023/01/22 11:47:54;;;;;;;;;25.25;22.50;;;;;3.02;100.00;102955.91;4913675;28;49791;-68
2023/01/22 11:50:50;;;;;;;;;24.25;22.75;;;;;3.64;100.00;103049.53;4919355;28;49962;-67
2023/01/22 11:53:28;;;;;;;;;32.50;25.50;;;;;3.62;100.00;103081.34;4917504;28;49689;-69
2023/01/22 11:56:01;;;;;;;;;35.00;29.50;;;;;2.77;100.00;102930.41;4916865;28;50762;-68
2023/01/22 11:58:51;;;;;;;;;30.50;22.75;;;;;3.56;100.00;103023.69;4919968;28;49815;-72
2023/01/22 12:02:01;;;;;;;;;23.00;21.00;;;;;3.77;100.00;103035.91;4919386;28;50057;-68
2023/01/22 12:04:44;;;;;;;;;21.00;17.75;;;;;3.75;100.00;103058.22;4902632;28;50163;-70
2023/01/22 12:07:43;;;;;;;;;29.25;19.75;;;;;2.76;100.00;102887.09;4922532;28;50338;-72
2023/01/22 12:10:26;;;;;;;;;14.50;12.25;;;;;3.62;100.00;103022.53;4917682;28;49778;-68
2023/01/22 12:13:03;;;;;;;;;6.75;6.75;;;;;3.73;100.00;103033.81;4919287;28;50037;-71
2023/01/22 12:16:08;;;;;;;;;22.75;22.00;;;;;3.82;100.00;103018.09;4918698;28;49869;-71
2023/01/22 12:18:51;;;;;;;;;21.00;19.25;;;;;4.11;100.00;103025.72;4898332;28;50065;-67
2023/01/22 12:21:59;;;;;;;;;19.00;16.25;;;;;3.54;100.00;102944.72;4929008;28;49621;-66
2023/01/22 12:24:32;;;;;;;;;18.25;16.25;;;;;3.18;100.00;102881.13;4905387;28;50011;-72
2023/01/22 12:27:14;;;;;;;;;19.00;15.50;;;;;3.67;100.00;102961.50;4913265;28;49848;-73
2023/01/22 12:29:45;;;;;;;;;11.25;10.75;;;;;3.54;100.00;102943.03;4912702;28;50007;-70
2023/01/22 12:32:14;;;;;;;;;16.00;12.00;;;;;3.95;100.00;102998.44;4912962;28;49823;-72
2023/01/22 12:34:48;;;;;;;;;20.25;17.00;;;;;4.00;100.00;103007.53;4916207;28;49803;-70
2023/01/22 12:37:18;;;;;;;;;15.25;15.00;;;;;3.55;100.00;102943.94;4918020;28;49968;-70
2023/01/22 12:40:22;;;;;;;;;19.50;15.25;;;;;4.10;100.00;103004.00;4913031;28;49838;-73
2023/01/22 12:43:01;;;;;;;;;14.75;13.25;;;;;4.21;100.00;102999.69;4913022;28;49793;-69
2023/01/22 12:45:52;;;;;;;;;14.75;14.75;;;;;4.26;100.00;102998.41;4913038;28;49785;-68
2023/01/22 12:48:41;;;;;;;;;16.00;15.00;;;;;4.32;100.00;102989.38;4913230;28;50103;-68
2023/01/22 12:51:34;;;;;;;;;17.50;15.50;;;;;3.53;100.00;102845.16;4912442;28;49732;-67
2023/01/22 12:54:08;;;;;;;;;19.50;18.50;;;;;4.44;100.00;102991.16;4912855;28;49724;-71
2023/01/22 12:56:34;;;;;;;;;17.00;16.75;;;;;3.70;100.00;102906.28;4912916;28;49931;-68
2023/01/22 12:58:59;;;;;;;;;16.25;12.00;;;;;4.21;100.00;102958.09;4913077;28;49563;-68
2023/01/22 13:01:33;;;;;;;;;12.50;12.50;;;;;4.40;100.00;102992.59;4912710;28;50117;-69
2023/01/22 13:04:06;;;;;;;;;15.50;13.75;;;;;4.16;100.00;102956.84;4927403;28;50034;-75
2023/01/22 13:06:37;;;;;;;;;10.50;10.50;;;;;4.03;100.00;102949.69;4915698;28;49800;-69
2023/01/22 13:09:22;;;;;;;;;13.50;10.75;;;;;4.02;100.00;102940.09;4915958;28;50015;-71
2023/01/22 13:11:48;;;;;;;;;19.75;16.75;;;;;4.07;100.00;102933.59;4915638;28;49852;-72
2023/01/22 13:14:25;;;;;;;;;18.00;14.75;;;;;4.34;100.00;102955.69;4915703;28;49749;-70
2023/01/22 13:16:56;;;;;;;;;13.75;12.00;;;;;4.56;100.00;102963.56;4915961;28;49857;-72
2023/01/22 13:19:25;;;;;;;;;8.25;6.00;;;;;4.53;100.00;102985.00;4916003;28;49951;-68
2023/01/22 13:21:51;;;;;;;;;13.00;11.00;;;;;4.48;100.00;102994.13;4915355;28;51005;-73
2023/01/22 13:24:19;;;;;;;;;12.00;12.00;;;;;4.20;100.00;102918.19;4915765;28;49925;-73
2023/01/22 13:26:55;;;;;;;;;12.75;12.75;;;;;2.59;100.00;102651.38;4918658;28;50006;-73
2023/01/22 13:29:26;;;;;;;;;9.50;8.75;;;;;3.28;100.00;102776.41;4916064;28;50242;-72
2023/01/22 13:31:57;;;;;;;;;17.75;15.50;;;;;3.88;100.00;102884.41;4915531;28;50738;-72
2023/01/22 13:34:23;;;;;;;;;16.50;13.75;;;;;4.51;100.00;103014.28;4915673;28;49775;-76
2023/01/22 13:36:50;;;;;;;;;16.25;15.50;;;;;3.72;100.00;102869.25;4933787;28;49814;-73
2023/01/22 13:39:19;;;;;;;;;13.75;13.75;;;;;4.08;100.00;102919.81;4934120;28;49799;-72
2023/01/22 13:41:48;;;;;;;;;21.50;14.75;;;;;4.08;100.00;102926.69;4933656;28;50823;-70
2023/01/22 13:44:18;;;;;;;;;19.50;15.75;;;;;3.77;100.00;102899.91;4920370;28;49919;-69
2023/01/22 13:46:44;;;;;;;;;16.25;15.00;;;;;3.58;100.00;102840.34;4921467;28;49820;-69
2023/01/22 13:49:20;;;;;;;;;13.50;12.25;;;;;4.31;100.00;102986.66;4915546;28;49573;-70
2023/01/22 13:51:46;;;;;;;;;19.25;15.75;;;;;4.33;100.00;102982.47;4926242;28;51369;-71
2023/01/22 13:54:30;;;;;;;;;19.00;16.25;;;;;2.91;100.00;102773.38;4915448;28;49749;-81
2023/01/22 13:56:56;;;;;;;;;18.00;15.50;;;;;3.98;100.00;102938.94;4915666;28;49924;-69
2023/01/22 13:59:25;;;;;;;;;15.75;15.50;;;;;3.86;100.00;102888.56;4915403;28;49756;-70
2023/01/22 14:01:51;;;;;;;;;7.50;7.00;;;;;3.62;100.00;102876.16;4914970;28;49857;-73
2023/01/22 14:04:24;;;;;;;;;13.00;13.00;;;;;2.85;100.00;102737.44;4919926;28;49975;-71
2023/01/22 14:06:49;;;;;;;;;13.00;13.00;;;;;3.02;100.00;102808.91;4934505;28;49718;-75
2023/01/22 14:09:32;;;;;;;;;12.75;12.50;;;;;3.16;100.00;102799.66;4923759;28;49908;-72
2023/01/22 14:12:16;;;;;;;;;16.25;15.50;;;;;4.22;100.00;102993.72;4924216;28;50520;-73
2023/01/22 14:14:42;;;;;;;;;18.75;15.00;;;;;3.59;100.00;102865.53;4922347;28;50091;-72
2023/01/22 14:17:20;;;;;;;;;15.75;15.25;;;;;2.56;100.00;102708.16;4915469;28;50034;-75
2023/01/22 14:19:45;;;;;;;;;15.75;14.50;;;;;4.27;100.00;103001.13;4917707;28;49810;-70
2023/01/22 14:22:11;;;;;;;;;15.00;13.00;;;;;3.27;100.00;102858.56;4929483;28;49953;-75
2023/01/22 14:24:36;;;;;;;;;17.75;15.25;;;;;4.05;100.00;102960.22;4920184;28;55132;-74
2023/01/22 14:27:02;;;;;;;;;18.75;16.00;;;;;4.01;100.00;102967.78;4917123;28;49999;-71
2023/01/22 14:29:27;;;;;;;;;15.75;13.50;;;;;3.82;100.00;102935.84;4915463;28;49571;-69
2023/01/22 14:31:52;;;;;;;;;16.75;15.00;;;;;4.11;100.00;102992.84;4927175;28;49668;-73
2023/01/22 14:34:18;;;;;;;;;14.25;13.00;;;;;3.40;100.00;102897.75;4920913;28;50029;-74
2023/01/22 14:36:46;;;;;;;;;26.75;15.75;;;;;2.83;100.00;102788.28;4914769;28;49732;-72
2023/01/22 14:39:11;;;;;;;;;18.00;16.50;;;;;2.23;100.00;102708.84;4917443;28;49765;-70
2023/01/22 14:41:36;;;;;;;;;18.50;16.25;;;;;3.29;100.00;102841.44;4922645;28;50046;-68
2023/01/22 14:44:02;;;;;;;;;8.75;8.75;;;;;3.33;100.00;102865.97;4921604;28;49794;-69
2023/01/22 14:46:28;;;;;;;;;18.00;16.00;;;;;4.16;100.00;103021.81;4933106;28;49933;-73
2023/01/22 14:48:53;;;;;;;;;16.50;16.50;;;;;3.53;100.00;102903.97;4925451;28;49665;-71
2023/01/22 14:51:19;;;;;;;;;22.75;16.50;;;;;3.83;100.00;102941.97;4914066;28;49924;-70
2023/01/22 14:53:44;;;;;;;;;23.25;17.75;;;;;3.53;100.00;102906.56;4919615;28;49864;-70
2023/01/22 14:56:09;;;;;;;;;15.50;15.50;;;;;3.58;100.00;102916.56;4925370;28;50212;-70
2023/01/22 14:58:35;;;;;;;;;22.00;19.50;;;;;4.07;100.00;102995.97;4917850;28;49846;-70
2023/01/22 15:01:01;;;;;;;;;17.50;16.00;;;;;3.86;100.00;102973.38;4919568;28;50118;-70
2023/01/22 15:06:02;;;;;;;;;20.25;19.50;;;;;3.66;100.00;102974.31;5047984;28;49887;-70
2023/01/22 15:08:27;;;;;;;;;20.50;20.50;;;;;3.74;100.00;102979.38;5037877;28;49613;-72
2023/01/22 15:10:53;;;;;;;;;18.00;16.50;;;;;3.17;100.00;102879.31;5032256;28;49892;-70
2023/01/22 15:13:18;;;;;;;;;18.25;17.00;;;;;3.81;100.00;102978.22;5041638;28;61280;-71
2023/01/22 15:15:43;;;;;;;;;26.25;21.25;;;;;3.34;100.00;102894.63;5053491;28;49766;-69
2023/01/22 15:18:08;;;;;;;;;20.50;17.00;;;;;2.12;100.00;102694.94;5049610;28;49912;-71
2023/01/22 15:20:34;;;;;;;;;17.75;15.75;;;;;3.79;100.00;102982.38;5035473;28;50010;-74
2023/01/22 15:22:59;;;;;;;;;23.00;19.75;;;;;3.67;100.00;102960.59;5039838;28;50928;-72
2023/01/22 15:25:26;;;;;;;;;21.75;17.50;;;;;3.87;100.00;102991.72;5039112;28;49669;-72
2023/01/22 15:27:54;;;;;;;;;20.75;16.25;;;;;2.42;100.00;102776.09;5042194;28;49669;-72
2023/01/22 15:30:19;;;;;;;;;29.00;23.75;;;;;2.39;100.00;102736.94;5045451;28;49859;-73
2023/01/22 15:32:45;;;;;;;;;24.25;18.50;;;;;3.18;100.00;102891.53;5039806;28;50527;-70
2023/01/22 15:35:10;;;;;;;;;26.25;20.50;;;;;2.71;100.00;102815.78;5041977;28;49741;-73
2023/01/22 15:37:36;;;;;;;;;20.50;20.00;;;;;3.67;100.00;102979.66;5035344;28;49780;-73
2023/01/22 15:40:01;;;;;;;;;21.75;20.00;;;;;3.50;100.00;102966.94;5035598;28;49891;-73
2023/01/22 15:42:27;;;;;;;;;18.50;15.25;;;;;3.07;100.00;102876.75;5029077;28;50903;-72
2023/01/22 15:44:52;;;;;;;;;19.75;16.75;;;;;2.26;100.00;102746.28;5041210;28;49782;-71
2023/01/22 15:47:26;;;;;;;;;23.50;20.25;;;;;3.73;100.00;102976.66;5039690;28;49658;-72
2023/01/22 15:49:55;;;;;;;;;15.50;11.25;;;;;3.99;100.00;103029.13;5041617;28;49876;-72
2023/01/22 15:52:21;;;;;;;;;19.00;18.50;;;;;3.86;100.00;103044.47;5041478;28;49906;-72
2023/01/22 15:54:47;;;;;;;;;21.00;20.50;;;;;3.73;100.00;103008.75;5039252;28;50079;-71
2023/01/22 15:57:13;;;;;;;;;19.25;16.00;;;;;3.27;100.00;102941.63;5037649;28;50048;-73
2023/01/22 15:59:47;;;;;;;;;20.00;20.00;;;;;3.37;100.00;102954.59;5040686;28;50128;-73
2023/01/22 16:02:12;;;;;;;;;24.75;20.50;;;;;3.50;100.00;102992.00;5042437;28;50623;-72
2023/01/22 16:04:37;;;;;;;;;22.50;19.75;;;;;3.48;100.00;102993.56;5048126;27;50013;-70
2023/01/22 16:07:03;;;;;;;;;23.50;19.00;;;;;3.36;100.00;102999.50;5057790;28;50031;-76
2023/01/22 16:09:28;;;;;;;;;19.50;18.25;;;;;3.53;100.00;103037.31;5055476;28;49740;-73
2023/01/22 16:11:55;;;;;;;;;17.00;14.25;;;;;3.56;100.00;103058.34;5062219;28;52409;-70
2023/01/22 16:14:21;;;;;;;;;21.25;21.25;;;;;3.43;100.00;103032.13;5057439;28;49845;-72
2023/01/22 16:16:46;;;;;;;;;25.25;22.75;;;;;3.08;100.00;102985.84;5063466;28;49805;-73
2023/01/22 16:19:14;;;;;;;;;26.75;23.25;;;;;3.15;100.00;103008.06;5060364;28;49479;-73
2023/01/22 16:21:40;;;;;;;;;27.25;22.00;;;;;3.36;100.00;103045.34;5058400;28;49697;-70
2023/01/22 16:24:06;;;;;;;;;25.75;20.00;;;;;3.30;100.00;103035.34;5058204;28;49381;-70
2023/01/22 16:26:33;;;;;;;;;29.50;25.00;;;;;3.34;100.00;103034.84;5044117;28;50042;-71
2023/01/22 16:29:01;;;;;;;;;29.25;26.50;;;;;3.41;100.00;103054.44;5040605;28;50022;-69
2023/01/22 16:31:28;;;;;;;;;25.50;23.25;;;;;3.37;100.00;103044.56;5044080;28;49970;-70
2023/01/22 16:33:57;;;;;;;;;27.50;23.75;;;;;3.26;100.00;103046.25;5043852;28;49952;-67
2023/01/22 16:36:26;;;;;;;;;24.25;19.50;;;;;3.31;100.00;103046.66;5037970;28;50319;-68
2023/01/22 16:38:52;;;;;;;;;29.25;25.00;;;;;3.06;100.00;103013.38;5028672;28;49873;-74
2023/01/22 16:41:17;;;;;;;;;45.00;36.25;;;;;3.36;100.00;103045.34;5043708;28;50829;-73
2023/01/22 16:43:46;;;;;;;;;30.50;25.75;;;;;3.05;100.00;103001.16;5045344;28;50131;-75
2023/01/22 16:46:13;;;;;;;;;29.50;23.50;;;;;3.26;100.00;103033.25;5046366;28;49688;-70
2023/01/22 16:48:38;;;;;;;;;26.25;24.75;;;;;3.26;100.00;103029.75;5045735;28;50005;-69
2023/01/22 16:51:04;;;;;;;;;41.25;39.75;;;;;3.40;100.00;103050.03;5048245;28;49927;-64
2023/01/22 16:53:29;;;;;;;;;23.50;23.50;;;;;3.23;100.00;103027.81;5046590;28;50044;-66
2023/01/22 16:55:58;;;;;;;;;32.25;23.75;;;;;3.34;100.00;103057.28;5046331;28;54153;-73
2023/01/22 16:58:24;;;;;;;;;24.50;22.00;;;;;3.26;100.00;103029.75;5030123;28;49953;-72
2023/01/22 17:00:50;;;;;;;;;27.75;22.25;;;;;3.21;100.00;103047.53;5048692;28;50427;-66
2023/01/22 17:03:16;;;;;;;;;21.50;21.50;;;;;3.24;100.00;103052.09;5027354;28;49838;-68
2023/01/22 17:05:41;;;;;;;;;32.75;28.25;;;;;2.65;100.00;102965.66;5047853;28;49934;-65
2023/01/22 17:08:07;;;;;;;;;30.25;27.00;;;;;3.22;100.00;103079.59;5046991;28;50037;-66
2023/01/22 17:10:36;;;;;;;;;31.00;25.25;;;;;2.43;100.00;102933.47;5014815;28;50976;-69
2023/01/22 17:13:02;;;;;;;;;28.50;23.75;;;;;3.03;100.00;103066.69;5050893;28;49792;-69
2023/01/22 17:15:28;;;;;;;;;14.75;14.75;;;;;3.02;100.00;103039.84;5051484;28;49964;-70
2023/01/22 17:17:53;;;;;;;;;30.25;26.75;;;;;3.04;100.00;103037.38;5051847;28;49873;-69
2023/01/22 17:20:19;;;;;;;;;36.50;29.50;;;;;2.88;100.00;103004.88;5050974;28;49911;-70
2023/01/22 17:22:44;;;;;;;;;33.50;27.75;;;;;3.22;100.00;103077.00;5040577;28;49822;-69
2023/01/22 17:25:10;;;;;;;;;23.75;23.75;;;;;2.41;100.00;102922.00;5038369;28;50048;-71
2023/01/22 17:27:35;;;;;;;;;27.00;23.00;;;;;2.17;100.00;102877.63;5031251;28;50011;-71
2023/01/22 17:30:01;;;;;;;;;31.25;28.25;;;;;2.99;100.00;103041.22;5031995;28;50677;-75
2023/01/22 17:32:26;;;;;;;;;30.00;25.75;;;;;2.25;100.00;102950.88;5032113;28;49688;-67
2023/01/22 17:34:52;;;;;;;;;29.50;24.75;;;;;3.15;100.00;103092.03;5032076;28;49946;-66
2023/01/22 17:37:17;;;;;;;;;35.75;31.75;;;;;3.12;100.00;103093.47;5031878;28;49708;-66
2023/01/22 17:39:49;;;;;;;;;34.75;28.50;;;;;2.76;100.00;103005.50;5032729;28;49751;-65
2023/01/22 17:42:15;;;;;;;;;34.75;30.25;;;;;3.08;100.00;103057.59;5051287;28;49524;-65
2023/01/22 17:44:40;;;;;;;;;37.75;29.75;;;;;2.55;100.00;102981.19;5046281;28;49571;-64
2023/01/22 17:47:06;;;;;;;;;28.00;25.25;;;;;2.98;100.00;103065.38;5053319;28;49534;-65
2023/01/22 17:49:32;;;;;;;;;23.00;22.25;;;;;3.13;100.00;103080.59;5047401;28;50364;-68
2023/01/22 17:52:08;;;;;;;;;36.25;29.75;;;;;2.54;100.00;102990.66;5034347;28;50133;-70
2023/01/22 17:54:34;;;;;;;;;30.00;30.00;;;;;2.65;100.00;103019.22;5037787;28;50134;-70
2023/01/22 17:56:59;;;;;;;;;22.00;18.50;;;;;2.39;100.00;102967.63;5034838;28;49853;-67
2023/01/22 17:59:25;;;;;;;;;31.00;31.00;;;;;2.36;100.00;102977.75;5038970;28;50011;-66
2023/01/22 18:01:50;;;;;;;;;29.75;28.50;;;;;3.08;100.00;103113.00;5049877;28;50295;-65
2023/01/22 18:04:16;;;;;;;;;31.50;19.75;;;;;3.07;100.00;103121.59;5041287;28;49603;-67
2023/01/22 18:06:43;;;;;;;;;33.75;28.75;;;;;2.73;100.00;103054.53;5035785;28;49915;-70
2023/01/22 18:09:10;;;;;;;;;41.25;32.50;;;;;2.75;100.00;103060.75;5030649;28;50749;-78
2023/01/22 18:11:38;;;;;;;;;40.25;32.50;;;;;2.44;100.00;103000.09;5031136;28;49731;-77
2023/01/22 18:14:07;;;;;;;;;31.00;26.25;;;;;0.95;100.00;102783.78;5035311;28;49831;-78
2023/01/22 18:16:35;;;;;;;;;34.00;29.25;;;;;1.54;100.00;102846.88;5030523;28;49672;-76
2023/01/22 18:19:04;;;;;;;;;32.50;27.25;;;;;2.51;100.00;103054.28;5031297;28;50950;-72
2023/01/22 18:21:29;;;;;;;;;38.00;34.00;;;;;2.81;100.00;103069.09;5030899;28;50031;-73
2023/01/22 18:23:55;;;;;;;;;26.75;24.25;;;;;2.71;100.00;103085.53;5031241;28;49770;-70
2023/01/22 18:26:25;;;;;;;;;23.50;23.50;;;;;2.85;100.00;103076.34;5031128;28;49859;-73
2023/01/22 18:28:52;;;;;;;;;35.75;28.50;;;;;3.07;100.00;103105.09;5030835;28;50161;-76
2023/01/22 18:31:23;;;;;;;;;41.50;33.00;;;;;1.98;100.00;102955.41;5030997;28;49775;-74
2023/01/22 18:33:49;;;;;;;;;35.75;33.25;;;;;2.70;100.00;103039.63;5031363;28;49653;-73
2023/01/22 18:36:21;;;;;;;;;27.00;25.50;;;;;2.73;100.00;103023.41;5030968;28;49582;-71
2023/01/22 18:38:47;;;;;;;;;35.00;29.25;;;;;3.14;100.00;103094.50;5030533;28;50699;-71
2023/01/22 18:41:17;;;;;;;;;30.00;24.50;;;;;2.59;100.00;103027.34;5031296;28;49813;-71
2023/01/22 18:43:46;;;;;;;;;30.50;29.00;;;;;2.92;100.00;103080.41;5030917;28;49938;-72
2023/01/22 18:46:12;;;;;;;;;40.00;32.25;;;;;3.04;100.00;103108.34;5030945;28;49760;-70
2023/01/22 18:48:39;;;;;;;;;37.50;33.50;;;;;2.76;100.00;103044.41;5045283;28;49779;-72
2023/01/22 18:51:11;;;;;;;;;38.75;33.50;;;;;2.62;100.00;103025.06;5050024;28;49774;-73
2023/01/22 18:53:39;;;;;;;;;25.25;21.75;;;;;2.55;100.00;102999.34;5041797;28;49780;-72
2023/01/22 18:56:06;;;;;;;;;31.50;27.00;;;;;3.07;100.00;103098.22;5031116;28;49942;-77
2023/01/22 18:58:36;;;;;;;;;30.25;27.00;;;;;1.78;100.00;102889.63;5030751;28;50934;-71
2023/01/22 19:01:10;;;;;;;;;30.00;27.50;;;;;3.14;100.00;103112.66;5029454;28;49685;-68
2023/01/22 19:03:37;;;;;;;;;31.00;26.00;;;;;3.03;100.00;103100.44;5030534;28;49597;-67
2023/01/22 19:06:14;;;;;;;;;36.25;34.50;;;;;2.71;100.00;103063.88;5030219;28;50235;-68
2023/01/22 19:08:42;;;;;;;;;32.50;30.50;;;;;2.45;100.00;103014.84;5030469;28;50598;-67
2023/01/22 19:11:08;;;;;;;;;41.25;34.50;;;;;1.68;100.00;102870.69;5029108;28;49910;-66
2023/01/22 19:13:36;;;;;;;;;44.25;40.25;;;;;2.79;100.00;103066.34;5030508;28;49987;-69
2023/01/22 19:16:04;;;;;;;;;39.50;36.00;;;;;2.62;100.00;103027.66;5030713;28;49551;-74
2023/01/22 19:18:29;;;;;;;;;34.25;31.50;;;;;3.00;100.00;103115.75;5030214;28;49907;-67
2023/01/22 19:21:01;;;;;;;;;53.50;40.00;;;;;2.93;100.00;103132.44;5029810;28;49723;-67
2023/01/22 19:23:27;;;;;;;;;46.00;37.75;;;;;1.36;100.00;102843.56;5030560;28;49900;-67
2023/01/22 19:25:55;;;;;;;;;39.25;29.75;;;;;2.89;100.00;103083.63;5028845;28;50374;-68
2023/01/22 19:28:21;;;;;;;;;32.25;29.25;;;;;2.47;100.00;103008.13;5032884;28;50521;-67
2023/01/22 19:30:46;;;;;;;;;42.50;38.50;;;;;3.16;100.00;103147.44;5030114;28;49852;-67
2023/01/22 19:33:12;;;;;;;;;33.50;31.50;;;;;2.33;100.00;102993.03;5030649;28;49861;-68
2023/01/22 19:35:44;;;;;;;;;36.75;33.75;;;;;3.09;100.00;103126.94;5030180;28;49913;-67
2023/01/22 19:38:10;;;;;;;;;38.75;34.50;;;;;2.87;100.00;103098.16;5030105;28;49798;-67
2023/01/22 19:40:35;;;;;;;;;39.50;34.00;;;;;2.93;100.00;103114.28;5025396;28;49837;-66
2023/01/22 19:43:00;;;;;;;;;33.75;30.00;;;;;2.95;100.00;103135.16;5030184;28;49590;-67
2023/01/22 19:45:26;;;;;;;;;52.25;40.00;;;;;2.67;100.00;103075.63;5034365;28;49935;-67
2023/01/22 19:47:53;;;;;;;;;36.00;33.00;;;;;2.77;100.00;103122.34;5041615;28;52301;-69
2023/01/22 19:50:21;;;;;;;;;40.75;34.25;;;;;2.80;100.00;103116.56;5037484;28;49760;-68
2023/01/22 19:52:46;;;;;;;;;41.25;33.25;;;;;2.63;100.00;103093.38;5042423;28;50133;-67
2023/01/22 19:55:12;;;;;;;;;32.50;32.25;;;;;2.54;100.00;103089.19;5055647;28;49922;-68
2023/01/22 19:57:37;;;;;;;;;44.50;37.75;;;;;2.52;100.00;103100.19;5055653;28;50347;-68
2023/01/22 20:00:04;;;;;;;;;40.25;37.75;;;;;1.85;100.00;103045.72;5033916;28;49994;-68
2023/01/22 20:02:29;;;;;;;;;37.00;31.25;;;;;1.99;100.00;103028.84;5035635;28;49702;-66
2023/01/22 20:04:55;;;;;;;;;39.50;32.25;;;;;1.40;100.00;102938.81;5033105;28;50162;-66
2023/01/22 20:07:21;;;;;;;;;42.00;35.50;;;;;1.45;100.00;103002.28;5032809;28;49959;-67
2023/01/22 20:09:46;;;;;;;;;20.50;18.75;;;;;2.18;100.00;103089.34;5033370;28;49866;-68
2023/01/22 20:12:12;;;;;;;;;44.00;36.25;;;;;2.52;100.00;103146.88;5033097;28;49823;-68
2023/01/22 20:14:42;;;;;;;;;46.75;39.00;;;;;2.58;100.00;103158.69;5033067;28;49733;-69
2023/01/22 20:17:09;;;;;;;;;47.50;39.75;;;;;2.05;100.00;103039.78;5032823;28;50961;-68
2023/01/22 20:19:37;;;;;;;;;37.50;37.50;;;;;2.01;100.00;103016.94;5032998;28;49992;-67
2023/01/22 20:22:04;;;;;;;;;47.25;42.00;;;;;1.39;100.00;102989.69;5032764;28;49857;-67
2023/01/22 20:24:29;;;;;;;;;38.75;30.75;;;;;2.53;100.00;103146.09;5033339;28;50344;-68
2023/01/22 20:26:55;;;;;;;;;38.00;31.50;;;;;2.50;100.00;103159.66;5032740;28;49869;-67
2023/01/22 20:29:21;;;;;;;;;50.75;42.00;;;;;1.92;100.00;103070.47;5033037;28;49768;-70
2023/01/22 20:31:50;;;;;;;;;29.00;26.75;;;;;2.27;100.00;103099.63;5032952;28;49699;-67